sensor_id;sensor_type;location;lat;lon;timestamp;temperature;humidity
19292;DHT22;9779;51.756;7.450;2023-03-21T00:01:03;9.10;99.90
19292;DHT22;9779;51.756;7.450;2023-03-21T00:03:29;9.10;99.90
19292;DHT22;9779;51.756;7.450;2023-03-21T00:05:55;9.10;99.90
19292;DHT22;9779;51.756;7.450;2023-03-21T00:08:23;9.10;99.90
19292;DHT22;9779;51.756;7.450;2023-03-21T00:11:00;9.10;99.90
19292;DHT22;9779;51.756;7.450;2023-03-21T00:13:28;9.10;99.90
19292;DHT22;9779;51.756;7.450;2023-03-21T00:15:57;9.10;99.90
19292;DHT22;9779;51.756;7.450;2023-03-21T00:18:27;9.10;99.90
19292;DHT22;9779;51.756;7.450;2023-03-21T00:21:00;9.10;99.90
19292;DHT22;9779;51.756;7.450;2023-03-21T00:23:28;9.10;99.90
19292;DHT22;9779;51.756;7.450;2023-03-21T00:25:54;9.10;99.90
19292;DHT22;9779;51.756;7.450;2023-03-21T00:28:20;9.10;99.90
19292;DHT22;9779;51.756;7.450;2023-03-21T00:30:45;9.10;99.90
19292;DHT22;9779;51.756;7.450;2023-03-21T00:33:11;9.10;99.90
19292;DHT22;9779;51.756;7.450;2023-03-21T00:35:39;9.10;99.90
19292;DHT22;9779;51.756;7.450;2023-03-21T00:38:08;9.10;99.90
19292;DHT22;9779;51.756;7.450;2023-03-21T00:40:33;9.10;99.90
19292;DHT22;9779;51.756;7.450;2023-03-21T00:42:59;9.10;99.90
19292;DHT22;9779;51.756;7.450;2023-03-21T00:45:25;9.10;99.90
19292;DHT22;9779;51.756;7.450;2023-03-21T00:47:50;9.20;99.90
19292;DHT22;9779;51.756;7.450;2023-03-21T00:50:16;9.10;99.90
19292;DHT22;9779;51.756;7.450;2023-03-21T00:52:42;9.20;99.90
19292;DHT22;9779;51.756;7.450;2023-03-21T00:55:16;9.20;99.90
19292;DHT22;9779;51.756;7.450;2023-03-21T00:57:42;9.20;99.90
19292;DHT22;9779;51.756;7.450;2023-03-21T01:00:11;9.20;99.90
19292;DHT22;9779;51.756;7.450;2023-03-21T01:02:37;9.20;99.90
19292;DHT22;9779;51.756;7.450;2023-03-21T01:05:03;9.20;99.90
19292;DHT22;9779;51.756;7.450;2023-03-21T01:07:29;9.20;99.90
19292;DHT22;9779;51.756;7.450;2023-03-21T01:09:55;9.20;99.90
19292;DHT22;9779;51.756;7.450;2023-03-21T01:12:20;9.20;99.90
19292;DHT22;9779;51.756;7.450;2023-03-21T01:14:46;9.30;99.90
19292;DHT22;9779;51.756;7.450;2023-03-21T01:17:12;9.30;99.90
19292;DHT22;9779;51.756;7.450;2023-03-21T01:19:37;9.20;99.90
19292;DHT22;9779;51.756;7.450;2023-03-21T01:22:03;9.30;99.90
19292;DHT22;9779;51.756;7.450;2023-03-21T01:24:29;9.20;99.90
19292;DHT22;9779;51.756;7.450;2023-03-21T01:26:54;9.30;99.90
19292;DHT22;9779;51.756;7.450;2023-03-21T01:29:20;9.20;99.90
19292;DHT22;9779;51.756;7.450;2023-03-21T01:31:46;9.20;99.90
19292;DHT22;9779;51.756;7.450;2023-03-21T01:34:11;9.30;99.90
19292;DHT22;9779;51.756;7.450;2023-03-21T01:36:37;9.30;99.90
19292;DHT22;9779;51.756;7.450;2023-03-21T01:39:03;9.30;99.90
19292;DHT22;9779;51.756;7.450;2023-03-21T01:41:36;9.30;99.90
19292;DHT22;9779;51.756;7.450;2023-03-21T01:44:01;9.30;99.90
19292;DHT22;9779;51.756;7.450;2023-03-21T01:46:35;9.30;99.90
19292;DHT22;9779;51.756;7.450;2023-03-21T01:49:27;9.30;99.90
19292;DHT22;9779;51.756;7.450;2023-03-21T01:52:02;9.30;99.90
19292;DHT22;9779;51.756;7.450;2023-03-21T01:54:31;9.30;99.90
19292;DHT22;9779;51.756;7.450;2023-03-21T01:57:00;9.30;99.90
19292;DHT22;9779;51.756;7.450;2023-03-21T01:59:43;9.30;99.90
19292;DHT22;9779;51.756;7.450;2023-03-21T02:02:13;9.30;99.90
19292;DHT22;9779;51.756;7.450;2023-03-21T02:04:42;9.30;99.90
19292;DHT22;9779;51.756;7.450;2023-03-21T02:07:26;9.30;99.90
19292;DHT22;9779;51.756;7.450;2023-03-21T02:09:53;9.40;99.90
19292;DHT22;9779;51.756;7.450;2023-03-21T02:12:19;9.30;99.90
19292;DHT22;9779;51.756;7.450;2023-03-21T02:14:47;9.30;99.90
19292;DHT22;9779;51.756;7.450;2023-03-21T02:26:39;9.30;78.60
19292;DHT22;9779;51.756;7.450;2023-03-21T02:29:36;9.30;52.90
19292;DHT22;9779;51.756;7.450;2023-03-21T02:38:09;9.30;1.00
19292;DHT22;9779;51.756;7.450;2023-03-21T02:43:31;9.30;1.00
19292;DHT22;9779;51.756;7.450;2023-03-21T02:46:27;9.30;1.00
19292;DHT22;9779;51.756;7.450;2023-03-21T02:49:30;9.30;1.00
19292;DHT22;9779;51.756;7.450;2023-03-21T02:52:00;9.30;1.00
19292;DHT22;9779;51.756;7.450;2023-03-21T02:54:27;9.30;1.00
19292;DHT22;9779;51.756;7.450;2023-03-21T02:56:56;9.30;1.00
19292;DHT22;9779;51.756;7.450;2023-03-21T02:59:24;9.30;1.00
19292;DHT22;9779;51.756;7.450;2023-03-21T03:01:51;9.30;1.00
19292;DHT22;9779;51.756;7.450;2023-03-21T03:04:19;9.30;1.10
19292;DHT22;9779;51.756;7.450;2023-03-21T03:09:42;9.30;1.00
19292;DHT22;9779;51.756;7.450;2023-03-21T03:17:53;9.30;32.30
19292;DHT22;9779;51.756;7.450;2023-03-21T03:23:18;9.30;33.70
19292;DHT22;9779;51.756;7.450;2023-03-21T03:25:58;9.30;51.60
19292;DHT22;9779;51.756;7.450;2023-03-21T03:28:30;9.30;40.60
19292;DHT22;9779;51.756;7.450;2023-03-21T03:30:58;9.30;47.60
19292;DHT22;9779;51.756;7.450;2023-03-21T03:33:29;9.30;54.60
19292;DHT22;9779;51.756;7.450;2023-03-21T03:35:56;9.30;58.90
19292;DHT22;9779;51.756;7.450;2023-03-21T03:38:24;9.30;55.30
19292;DHT22;9779;51.756;7.450;2023-03-21T03:40:55;9.30;50.30
19292;DHT22;9779;51.756;7.450;2023-03-21T03:43:29;9.30;58.00
19292;DHT22;9779;51.756;7.450;2023-03-21T03:46:15;9.30;61.80
19292;DHT22;9779;51.756;7.450;2023-03-21T03:48:51;9.20;56.00
19292;DHT22;9779;51.756;7.450;2023-03-21T03:51:26;9.20;54.20
19292;DHT22;9779;51.756;7.450;2023-03-21T03:54:00;9.20;46.60
19292;DHT22;9779;51.756;7.450;2023-03-21T03:56:28;9.20;48.10
19292;DHT22;9779;51.756;7.450;2023-03-21T03:58:55;9.20;53.50
19292;DHT22;9779;51.756;7.450;2023-03-21T04:01:21;9.10;70.70
19292;DHT22;9779;51.756;7.450;2023-03-21T04:03:47;9.10;90.00
19292;DHT22;9779;51.756;7.450;2023-03-21T04:06:17;9.10;99.60
19292;DHT22;9779;51.756;7.450;2023-03-21T04:08:42;9.10;99.90
19292;DHT22;9779;51.756;7.450;2023-03-21T04:11:11;9.10;99.90
19292;DHT22;9779;51.756;7.450;2023-03-21T04:13:37;9.10;99.90
19292;DHT22;9779;51.756;7.450;2023-03-21T04:16:03;9.00;99.90
19292;DHT22;9779;51.756;7.450;2023-03-21T04:18:29;9.00;99.90
19292;DHT22;9779;51.756;7.450;2023-03-21T04:20:54;9.00;99.90
19292;DHT22;9779;51.756;7.450;2023-03-21T04:23:20;9.00;99.90
19292;DHT22;9779;51.756;7.450;2023-03-21T04:25:47;9.10;99.90
19292;DHT22;9779;51.756;7.450;2023-03-21T04:28:13;9.00;99.90
19292;DHT22;9779;51.756;7.450;2023-03-21T04:30:38;9.10;99.90
19292;DHT22;9779;51.756;7.450;2023-03-21T04:33:06;9.10;99.90
19292;DHT22;9779;51.756;7.450;2023-03-21T04:35:31;9.10;99.90
19292;DHT22;9779;51.756;7.450;2023-03-21T04:37:58;9.10;99.90
19292;DHT22;9779;51.756;7.450;2023-03-21T04:40:24;9.10;99.90
19292;DHT22;9779;51.756;7.450;2023-03-21T04:42:51;9.10;99.90
19292;DHT22;9779;51.756;7.450;2023-03-21T04:45:17;9.10;99.90
19292;DHT22;9779;51.756;7.450;2023-03-21T04:47:42;9.10;99.90
19292;DHT22;9779;51.756;7.450;2023-03-21T04:50:09;9.10;99.90
19292;DHT22;9779;51.756;7.450;2023-03-21T04:52:35;9.10;99.90
19292;DHT22;9779;51.756;7.450;2023-03-21T04:55:01;9.10;99.90
19292;DHT22;9779;51.756;7.450;2023-03-21T04:57:27;9.10;99.90
19292;DHT22;9779;51.756;7.450;2023-03-21T04:59:52;9.10;99.90
19292;DHT22;9779;51.756;7.450;2023-03-21T05:02:18;9.10;99.90
19292;DHT22;9779;51.756;7.450;2023-03-21T05:04:43;9.10;99.90
19292;DHT22;9779;51.756;7.450;2023-03-21T05:07:09;9.10;99.90
19292;DHT22;9779;51.756;7.450;2023-03-21T05:09:35;9.10;99.90
19292;DHT22;9779;51.756;7.450;2023-03-21T05:12:01;9.10;99.90
19292;DHT22;9779;51.756;7.450;2023-03-21T05:14:27;9.10;99.90
19292;DHT22;9779;51.756;7.450;2023-03-21T05:16:53;9.10;99.90
19292;DHT22;9779;51.756;7.450;2023-03-21T05:19:28;9.10;99.90
19292;DHT22;9779;51.756;7.450;2023-03-21T05:22:05;9.10;99.90
19292;DHT22;9779;51.756;7.450;2023-03-21T05:24:31;9.10;99.90
19292;DHT22;9779;51.756;7.450;2023-03-21T05:26:58;9.10;99.90
19292;DHT22;9779;51.756;7.450;2023-03-21T05:29:28;9.10;99.90
19292;DHT22;9779;51.756;7.450;2023-03-21T05:31:54;9.10;99.90
19292;DHT22;9779;51.756;7.450;2023-03-21T05:34:19;9.10;99.90
19292;DHT22;9779;51.756;7.450;2023-03-21T05:36:45;9.10;99.90
19292;DHT22;9779;51.756;7.450;2023-03-21T05:39:11;9.10;99.90
19292;DHT22;9779;51.756;7.450;2023-03-21T05:41:36;9.10;99.90
19292;DHT22;9779;51.756;7.450;2023-03-21T05:44:02;9.10;99.90
19292;DHT22;9779;51.756;7.450;2023-03-21T05:46:27;9.20;99.90
19292;DHT22;9779;51.756;7.450;2023-03-21T05:48:53;9.10;99.90
19292;DHT22;9779;51.756;7.450;2023-03-21T05:51:18;9.10;99.90
19292;DHT22;9779;51.756;7.450;2023-03-21T05:53:44;9.10;99.90
19292;DHT22;9779;51.756;7.450;2023-03-21T05:56:09;9.10;99.90
19292;DHT22;9779;51.756;7.450;2023-03-21T05:58:35;9.10;99.90
19292;DHT22;9779;51.756;7.450;2023-03-21T06:01:00;9.10;99.90
19292;DHT22;9779;51.756;7.450;2023-03-21T06:03:26;9.10;99.90
19292;DHT22;9779;51.756;7.450;2023-03-21T06:05:52;9.10;99.90
19292;DHT22;9779;51.756;7.450;2023-03-21T06:08:18;9.20;99.90
19292;DHT22;9779;51.756;7.450;2023-03-21T06:10:43;9.10;99.90
19292;DHT22;9779;51.756;7.450;2023-03-21T06:13:09;9.20;99.90
19292;DHT22;9779;51.756;7.450;2023-03-21T06:15:34;9.10;99.90
19292;DHT22;9779;51.756;7.450;2023-03-21T06:18:00;9.20;99.90
19292;DHT22;9779;51.756;7.450;2023-03-21T06:20:25;9.20;99.90
19292;DHT22;9779;51.756;7.450;2023-03-21T06:22:51;9.20;99.90
19292;DHT22;9779;51.756;7.450;2023-03-21T06:25:17;9.20;99.90
19292;DHT22;9779;51.756;7.450;2023-03-21T06:27:42;9.20;99.90
19292;DHT22;9779;51.756;7.450;2023-03-21T06:30:08;9.20;99.90
19292;DHT22;9779;51.756;7.450;2023-03-21T06:32:34;9.20;99.90
19292;DHT22;9779;51.756;7.450;2023-03-21T06:35:00;9.20;99.90
19292;DHT22;9779;51.756;7.450;2023-03-21T06:37:26;9.20;99.90
19292;DHT22;9779;51.756;7.450;2023-03-21T06:39:52;9.20;99.90
19292;DHT22;9779;51.756;7.450;2023-03-21T06:42:18;9.20;99.90
19292;DHT22;9779;51.756;7.450;2023-03-21T06:44:43;9.20;99.90
19292;DHT22;9779;51.756;7.450;2023-03-21T06:47:09;9.30;99.90
19292;DHT22;9779;51.756;7.450;2023-03-21T06:49:35;9.20;99.90
19292;DHT22;9779;51.756;7.450;2023-03-21T06:52:00;9.20;99.90
19292;DHT22;9779;51.756;7.450;2023-03-21T06:54:26;9.20;99.90
19292;DHT22;9779;51.756;7.450;2023-03-21T06:56:51;9.20;99.90
19292;DHT22;9779;51.756;7.450;2023-03-21T06:59:18;9.20;99.90
19292;DHT22;9779;51.756;7.450;2023-03-21T07:01:44;9.20;99.90
19292;DHT22;9779;51.756;7.450;2023-03-21T07:04:09;9.20;99.90
19292;DHT22;9779;51.756;7.450;2023-03-21T07:06:35;9.20;99.90
19292;DHT22;9779;51.756;7.450;2023-03-21T07:09:02;9.20;99.90
19292;DHT22;9779;51.756;7.450;2023-03-21T07:11:30;9.20;99.90
19292;DHT22;9779;51.756;7.450;2023-03-21T07:13:56;9.20;99.90
19292;DHT22;9779;51.756;7.450;2023-03-21T07:16:21;9.20;99.90
19292;DHT22;9779;51.756;7.450;2023-03-21T07:18:49;9.20;99.90
19292;DHT22;9779;51.756;7.450;2023-03-21T07:21:15;9.20;99.90
19292;DHT22;9779;51.756;7.450;2023-03-21T07:23:41;9.20;99.90
19292;DHT22;9779;51.756;7.450;2023-03-21T07:26:06;9.20;99.90
19292;DHT22;9779;51.756;7.450;2023-03-21T07:28:32;9.20;99.90
19292;DHT22;9779;51.756;7.450;2023-03-21T07:31:01;9.30;99.90
19292;DHT22;9779;51.756;7.450;2023-03-21T07:33:27;9.30;99.90
19292;DHT22;9779;51.756;7.450;2023-03-21T07:35:53;9.30;99.90
19292;DHT22;9779;51.756;7.450;2023-03-21T07:38:20;9.30;99.90
19292;DHT22;9779;51.756;7.450;2023-03-21T07:40:46;9.30;99.90
19292;DHT22;9779;51.756;7.450;2023-03-21T07:43:12;9.30;99.90
19292;DHT22;9779;51.756;7.450;2023-03-21T07:45:38;9.40;99.90
19292;DHT22;9779;51.756;7.450;2023-03-21T07:48:04;9.40;99.90
19292;DHT22;9779;51.756;7.450;2023-03-21T07:50:30;9.40;99.90
19292;DHT22;9779;51.756;7.450;2023-03-21T07:52:55;9.40;99.90
19292;DHT22;9779;51.756;7.450;2023-03-21T07:55:21;9.40;99.90
19292;DHT22;9779;51.756;7.450;2023-03-21T07:57:50;9.40;99.90
19292;DHT22;9779;51.756;7.450;2023-03-21T08:00:19;9.40;99.90
19292;DHT22;9779;51.756;7.450;2023-03-21T08:02:52;9.40;99.90
19292;DHT22;9779;51.756;7.450;2023-03-21T08:05:23;9.40;99.90
19292;DHT22;9779;51.756;7.450;2023-03-21T08:07:49;9.40;99.90
19292;DHT22;9779;51.756;7.450;2023-03-21T08:10:16;9.50;99.90
19292;DHT22;9779;51.756;7.450;2023-03-21T08:12:42;9.50;99.90
19292;DHT22;9779;51.756;7.450;2023-03-21T08:15:08;9.50;99.90
19292;DHT22;9779;51.756;7.450;2023-03-21T08:17:33;9.50;99.90
19292;DHT22;9779;51.756;7.450;2023-03-21T08:20:04;9.60;99.90
19292;DHT22;9779;51.756;7.450;2023-03-21T08:22:32;9.60;99.90
19292;DHT22;9779;51.756;7.450;2023-03-21T08:24:57;9.60;99.90
19292;DHT22;9779;51.756;7.450;2023-03-21T08:27:23;9.60;99.90
19292;DHT22;9779;51.756;7.450;2023-03-21T08:29:49;9.60;99.90
19292;DHT22;9779;51.756;7.450;2023-03-21T08:32:17;9.60;99.90
19292;DHT22;9779;51.756;7.450;2023-03-21T08:34:43;9.70;99.90
19292;DHT22;9779;51.756;7.450;2023-03-21T08:37:09;9.60;99.90
19292;DHT22;9779;51.756;7.450;2023-03-21T08:39:34;9.70;99.90
19292;DHT22;9779;51.756;7.450;2023-03-21T08:42:00;9.70;99.90
19292;DHT22;9779;51.756;7.450;2023-03-21T08:44:26;9.70;99.90
19292;DHT22;9779;51.756;7.450;2023-03-21T08:46:51;9.70;99.90
19292;DHT22;9779;51.756;7.450;2023-03-21T08:49:17;9.70;99.90
19292;DHT22;9779;51.756;7.450;2023-03-21T08:51:42;9.70;99.90
19292;DHT22;9779;51.756;7.450;2023-03-21T08:54:19;9.70;99.90
19292;DHT22;9779;51.756;7.450;2023-03-21T08:56:45;9.80;99.90
19292;DHT22;9779;51.756;7.450;2023-03-21T08:59:11;9.80;99.90
19292;DHT22;9779;51.756;7.450;2023-03-21T09:01:37;9.80;99.90
19292;DHT22;9779;51.756;7.450;2023-03-21T09:04:02;9.80;99.90
19292;DHT22;9779;51.756;7.450;2023-03-21T09:06:32;9.90;99.90
19292;DHT22;9779;51.756;7.450;2023-03-21T09:08:58;9.90;99.90
19292;DHT22;9779;51.756;7.450;2023-03-21T09:11:24;10.00;99.90
19292;DHT22;9779;51.756;7.450;2023-03-21T09:13:49;10.00;99.90
19292;DHT22;9779;51.756;7.450;2023-03-21T09:16:15;10.00;99.90
19292;DHT22;9779;51.756;7.450;2023-03-21T09:18:41;10.10;99.90
19292;DHT22;9779;51.756;7.450;2023-03-21T09:21:12;10.10;99.90
19292;DHT22;9779;51.756;7.450;2023-03-21T09:23:41;10.10;99.90
19292;DHT22;9779;51.756;7.450;2023-03-21T09:26:07;10.10;99.90
19292;DHT22;9779;51.756;7.450;2023-03-21T09:28:34;10.10;99.90
19292;DHT22;9779;51.756;7.450;2023-03-21T09:31:02;10.10;99.90
19292;DHT22;9779;51.756;7.450;2023-03-21T09:33:28;10.20;99.90
19292;DHT22;9779;51.756;7.450;2023-03-21T09:35:55;10.20;99.90
19292;DHT22;9779;51.756;7.450;2023-03-21T09:38:21;10.20;99.90
19292;DHT22;9779;51.756;7.450;2023-03-21T09:40:54;10.20;99.90
19292;DHT22;9779;51.756;7.450;2023-03-21T09:43:42;10.20;99.90
19292;DHT22;9779;51.756;7.450;2023-03-21T09:46:26;10.20;99.90
19292;DHT22;9779;51.756;7.450;2023-03-21T09:49:00;10.30;99.90
19292;DHT22;9779;51.756;7.450;2023-03-21T09:51:34;10.30;99.90
19292;DHT22;9779;51.756;7.450;2023-03-21T09:54:36;10.40;99.90
19292;DHT22;9779;51.756;7.450;2023-03-21T09:59:55;10.40;99.90
19292;DHT22;9779;51.756;7.450;2023-03-21T10:02:36;10.40;99.90
19292;DHT22;9779;51.756;7.450;2023-03-21T10:05:19;10.50;99.90
19292;DHT22;9779;51.756;7.450;2023-03-21T10:10:28;10.50;99.90
19292;DHT22;9779;51.756;7.450;2023-03-21T10:12:55;10.50;99.90
19292;DHT22;9779;51.756;7.450;2023-03-21T10:15:24;10.50;99.90
19292;DHT22;9779;51.756;7.450;2023-03-21T10:18:00;10.50;99.90
19292;DHT22;9779;51.756;7.450;2023-03-21T10:20:30;10.50;99.90
19292;DHT22;9779;51.756;7.450;2023-03-21T10:22:59;10.50;99.90
19292;DHT22;9779;51.756;7.450;2023-03-21T10:25:32;10.60;99.90
19292;DHT22;9779;51.756;7.450;2023-03-21T10:27:59;10.50;99.90
19292;DHT22;9779;51.756;7.450;2023-03-21T10:30:40;10.50;99.90
19292;DHT22;9779;51.756;7.450;2023-03-21T10:33:13;10.50;99.90
19292;DHT22;9779;51.756;7.450;2023-03-21T10:35:42;10.50;99.90
19292;DHT22;9779;51.756;7.450;2023-03-21T10:38:14;10.50;99.90
19292;DHT22;9779;51.756;7.450;2023-03-21T10:40:40;10.50;99.90
19292;DHT22;9779;51.756;7.450;2023-03-21T10:45:49;10.60;99.90
19292;DHT22;9779;51.756;7.450;2023-03-21T10:48:15;10.70;99.90
19292;DHT22;9779;51.756;7.450;2023-03-21T10:50:42;10.70;99.90
19292;DHT22;9779;51.756;7.450;2023-03-21T10:53:19;10.70;99.90
19292;DHT22;9779;51.756;7.450;2023-03-21T10:55:49;10.80;99.90
19292;DHT22;9779;51.756;7.450;2023-03-21T10:58:21;10.80;99.90
19292;DHT22;9779;51.756;7.450;2023-03-21T11:01:03;10.80;99.90
19292;DHT22;9779;51.756;7.450;2023-03-21T11:03:36;10.90;99.90
19292;DHT22;9779;51.756;7.450;2023-03-21T11:06:22;10.90;99.90
19292;DHT22;9779;51.756;7.450;2023-03-21T11:08:54;11.00;99.90
19292;DHT22;9779;51.756;7.450;2023-03-21T11:11:39;11.00;99.90
19292;DHT22;9779;51.756;7.450;2023-03-21T11:14:11;11.00;99.90
19292;DHT22;9779;51.756;7.450;2023-03-21T11:16:48;11.10;99.90
19292;DHT22;9779;51.756;7.450;2023-03-21T11:19:16;11.10;99.90
19292;DHT22;9779;51.756;7.450;2023-03-21T11:21:42;11.20;99.90
19292;DHT22;9779;51.756;7.450;2023-03-21T11:24:16;11.30;99.90
19292;DHT22;9779;51.756;7.450;2023-03-21T11:26:44;11.30;99.90
19292;DHT22;9779;51.756;7.450;2023-03-21T11:31:49;11.30;99.90
19292;DHT22;9779;51.756;7.450;2023-03-21T11:34:44;11.30;99.90
19292;DHT22;9779;51.756;7.450;2023-03-21T11:37:31;11.30;99.90
19292;DHT22;9779;51.756;7.450;2023-03-21T11:40:19;11.30;99.90
19292;DHT22;9779;51.756;7.450;2023-03-21T11:42:48;11.20;99.90
19292;DHT22;9779;51.756;7.450;2023-03-21T11:45:20;11.20;99.90
19292;DHT22;9779;51.756;7.450;2023-03-21T11:47:47;11.20;99.90
19292;DHT22;9779;51.756;7.450;2023-03-21T11:52:58;11.20;99.90
19292;DHT22;9779;51.756;7.450;2023-03-21T11:58:17;11.20;99.90
19292;DHT22;9779;51.756;7.450;2023-03-21T12:03:46;11.30;99.90
19292;DHT22;9779;51.756;7.450;2023-03-21T12:06:24;11.30;99.90
19292;DHT22;9779;51.756;7.450;2023-03-21T12:16:55;11.60;99.90
19292;DHT22;9779;51.756;7.450;2023-03-21T12:19:34;11.60;99.90
19292;DHT22;9779;51.756;7.450;2023-03-21T12:24:54;11.60;99.90
19292;DHT22;9779;51.756;7.450;2023-03-21T12:27:35;11.70;99.90
19292;DHT22;9779;51.756;7.450;2023-03-21T12:41:19;11.80;99.90
19292;DHT22;9779;51.756;7.450;2023-03-21T12:44:01;11.90;99.90
19292;DHT22;9779;51.756;7.450;2023-03-21T12:46:30;12.00;99.90
19292;DHT22;9779;51.756;7.450;2023-03-21T12:49:15;12.00;99.90
19292;DHT22;9779;51.756;7.450;2023-03-21T12:51:50;12.10;99.90
19292;DHT22;9779;51.756;7.450;2023-03-21T12:54:38;12.10;99.90
19292;DHT22;9779;51.756;7.450;2023-03-21T12:59:40;12.10;99.90
19292;DHT22;9779;51.756;7.450;2023-03-21T13:02:31;12.20;99.90
19292;DHT22;9779;51.756;7.450;2023-03-21T13:07:46;12.20;99.90
19292;DHT22;9779;51.756;7.450;2023-03-21T13:10:15;12.20;99.90
19292;DHT22;9779;51.756;7.450;2023-03-21T13:23:58;12.20;99.90
19292;DHT22;9779;51.756;7.450;2023-03-21T13:26:39;12.20;99.90
19292;DHT22;9779;51.756;7.450;2023-03-21T13:29:12;12.20;99.90
19292;DHT22;9779;51.756;7.450;2023-03-21T13:31:43;12.20;21.70
19292;DHT22;9779;51.756;7.450;2023-03-21T13:34:11;12.20;1.00
19292;DHT22;9779;51.756;7.450;2023-03-21T13:36:44;12.20;99.90
19292;DHT22;9779;51.756;7.450;2023-03-21T13:39:25;12.20;99.90
19292;DHT22;9779;51.756;7.450;2023-03-21T13:41:52;12.20;99.90
19292;DHT22;9779;51.756;7.450;2023-03-21T13:44:30;12.20;99.90
19292;DHT22;9779;51.756;7.450;2023-03-21T13:47:03;12.20;99.90
19292;DHT22;9779;51.756;7.450;2023-03-21T13:49:36;12.20;99.90
19292;DHT22;9779;51.756;7.450;2023-03-21T13:57:04;12.30;99.90
19292;DHT22;9779;51.756;7.450;2023-03-21T13:59:41;12.40;99.90
19292;DHT22;9779;51.756;7.450;2023-03-21T14:02:27;12.40;99.90
19292;DHT22;9779;51.756;7.450;2023-03-21T14:05:17;12.40;99.90
19292;DHT22;9779;51.756;7.450;2023-03-21T14:07:48;12.40;99.90
19292;DHT22;9779;51.756;7.450;2023-03-21T14:10:25;12.40;99.90
19292;DHT22;9779;51.756;7.450;2023-03-21T14:12:52;12.40;99.90
19292;DHT22;9779;51.756;7.450;2023-03-21T14:15:21;12.40;99.90
19292;DHT22;9779;51.756;7.450;2023-03-21T14:17:56;12.50;99.90
19292;DHT22;9779;51.756;7.450;2023-03-21T14:20:26;12.40;99.90
19292;DHT22;9779;51.756;7.450;2023-03-21T14:22:53;12.50;99.90
19292;DHT22;9779;51.756;7.450;2023-03-21T14:25:21;12.60;99.90
19292;DHT22;9779;51.756;7.450;2023-03-21T14:27:53;12.60;99.90
19292;DHT22;9779;51.756;7.450;2023-03-21T14:30:36;12.60;99.90
19292;DHT22;9779;51.756;7.450;2023-03-21T14:35:41;12.60;99.90
19292;DHT22;9779;51.756;7.450;2023-03-21T14:38:21;12.50;99.90
19292;DHT22;9779;51.756;7.450;2023-03-21T14:40:48;12.50;99.90
19292;DHT22;9779;51.756;7.450;2023-03-21T14:43:14;12.40;99.90
19292;DHT22;9779;51.756;7.450;2023-03-21T14:45:40;12.40;99.90
19292;DHT22;9779;51.756;7.450;2023-03-21T14:48:14;12.40;99.90
19292;DHT22;9779;51.756;7.450;2023-03-21T14:50:54;12.40;99.90
19292;DHT22;9779;51.756;7.450;2023-03-21T14:53:27;12.40;99.90
19292;DHT22;9779;51.756;7.450;2023-03-21T14:58:24;12.50;99.90
19292;DHT22;9779;51.756;7.450;2023-03-21T15:00:50;12.50;99.90
19292;DHT22;9779;51.756;7.450;2023-03-21T15:03:18;12.60;99.90
19292;DHT22;9779;51.756;7.450;2023-03-21T15:05:45;12.70;99.90
19292;DHT22;9779;51.756;7.450;2023-03-21T15:10:37;12.70;99.90
19292;DHT22;9779;51.756;7.450;2023-03-21T15:13:18;12.70;99.90
19292;DHT22;9779;51.756;7.450;2023-03-21T15:15:44;12.70;99.90
19292;DHT22;9779;51.756;7.450;2023-03-21T15:18:14;12.70;99.90
19292;DHT22;9779;51.756;7.450;2023-03-21T15:20:41;12.60;99.90
19292;DHT22;9779;51.756;7.450;2023-03-21T15:23:13;12.60;99.90
19292;DHT22;9779;51.756;7.450;2023-03-21T15:25:41;12.50;99.90
19292;DHT22;9779;51.756;7.450;2023-03-21T15:28:06;12.50;99.90
19292;DHT22;9779;51.756;7.450;2023-03-21T15:30:33;12.60;99.90
19292;DHT22;9779;51.756;7.450;2023-03-21T15:33:06;12.60;99.90
19292;DHT22;9779;51.756;7.450;2023-03-21T15:35:38;12.50;99.90
19292;DHT22;9779;51.756;7.450;2023-03-21T15:38:05;12.50;99.90
19292;DHT22;9779;51.756;7.450;2023-03-21T15:40:32;12.50;99.90
19292;DHT22;9779;51.756;7.450;2023-03-21T15:43:18;12.50;99.90
19292;DHT22;9779;51.756;7.450;2023-03-21T15:45:52;12.60;99.90
19292;DHT22;9779;51.756;7.450;2023-03-21T15:48:26;12.60;99.90
19292;DHT22;9779;51.756;7.450;2023-03-21T15:51:02;12.80;99.90
19292;DHT22;9779;51.756;7.450;2023-03-21T15:53:35;12.90;99.90
19292;DHT22;9779;51.756;7.450;2023-03-21T15:56:02;12.90;99.90
19292;DHT22;9779;51.756;7.450;2023-03-21T15:58:42;13.30;99.90
19292;DHT22;9779;51.756;7.450;2023-03-21T16:01:15;13.60;99.90
19292;DHT22;9779;51.756;7.450;2023-03-21T16:03:44;14.10;99.90
19292;DHT22;9779;51.756;7.450;2023-03-21T16:14:11;13.90;99.90
19292;DHT22;9779;51.756;7.450;2023-03-21T16:16:36;13.70;99.90
19292;DHT22;9779;51.756;7.450;2023-03-21T16:19:02;13.60;99.90
19292;DHT22;9779;51.756;7.450;2023-03-21T16:21:30;13.60;99.90
19292;DHT22;9779;51.756;7.450;2023-03-21T16:23:57;13.50;99.90
19292;DHT22;9779;51.756;7.450;2023-03-21T16:26:28;13.40;99.90
19292;DHT22;9779;51.756;7.450;2023-03-21T16:28:54;13.40;99.90
19292;DHT22;9779;51.756;7.450;2023-03-21T16:31:23;13.30;99.90
19292;DHT22;9779;51.756;7.450;2023-03-21T16:33:49;13.20;99.90
19292;DHT22;9779;51.756;7.450;2023-03-21T16:38:47;13.10;99.90
19292;DHT22;9779;51.756;7.450;2023-03-21T16:41:15;13.10;99.90
19292;DHT22;9779;51.756;7.450;2023-03-21T16:43:41;13.00;99.90
19292;DHT22;9779;51.756;7.450;2023-03-21T16:46:26;13.00;99.90
19292;DHT22;9779;51.756;7.450;2023-03-21T16:48:54;12.90;99.90
19292;DHT22;9779;51.756;7.450;2023-03-21T16:51:31;12.90;99.90
19292;DHT22;9779;51.756;7.450;2023-03-21T16:53:57;12.90;99.90
19292;DHT22;9779;51.756;7.450;2023-03-21T16:56:26;13.00;99.90
19292;DHT22;9779;51.756;7.450;2023-03-21T16:58:56;13.10;1.00
19292;DHT22;9779;51.756;7.450;2023-03-21T17:01:23;13.00;99.90
19292;DHT22;9779;51.756;7.450;2023-03-21T17:03:51;12.90;99.90
19292;DHT22;9779;51.756;7.450;2023-03-21T17:06:22;12.80;99.90
19292;DHT22;9779;51.756;7.450;2023-03-21T17:08:49;12.80;99.90
19292;DHT22;9779;51.756;7.450;2023-03-21T17:11:17;12.70;99.90
19292;DHT22;9779;51.756;7.450;2023-03-21T17:13:46;12.70;99.90
19292;DHT22;9779;51.756;7.450;2023-03-21T17:16:13;12.70;99.90
19292;DHT22;9779;51.756;7.450;2023-03-21T17:18:40;12.70;99.90
19292;DHT22;9779;51.756;7.450;2023-03-21T17:23:36;12.70;99.90
19292;DHT22;9779;51.756;7.450;2023-03-21T17:26:02;12.60;99.90
19292;DHT22;9779;51.756;7.450;2023-03-21T17:28:27;12.60;99.90
19292;DHT22;9779;51.756;7.450;2023-03-21T17:30:53;12.50;99.90
19292;DHT22;9779;51.756;7.450;2023-03-21T17:33:18;12.50;99.90
19292;DHT22;9779;51.756;7.450;2023-03-21T17:35:43;12.50;99.90
19292;DHT22;9779;51.756;7.450;2023-03-21T17:38:14;12.50;99.90
19292;DHT22;9779;51.756;7.450;2023-03-21T17:40:41;12.40;99.90
19292;DHT22;9779;51.756;7.450;2023-03-21T17:43:12;12.40;99.90
19292;DHT22;9779;51.756;7.450;2023-03-21T17:45:38;12.50;99.90
19292;DHT22;9779;51.756;7.450;2023-03-21T17:48:04;12.40;99.90
19292;DHT22;9779;51.756;7.450;2023-03-21T17:50:31;12.40;99.90
19292;DHT22;9779;51.756;7.450;2023-03-21T17:53:02;12.40;99.90
19292;DHT22;9779;51.756;7.450;2023-03-21T17:55:28;12.30;99.90
19292;DHT22;9779;51.756;7.450;2023-03-21T17:57:54;12.30;99.90
19292;DHT22;9779;51.756;7.450;2023-03-21T18:00:23;12.30;99.90
19292;DHT22;9779;51.756;7.450;2023-03-21T18:02:50;12.30;99.90